Time;durP1;ratioP1;P1;durP2;ratioP2;P2;SDS_P1;SDS_P2;PMS_P1;PMS_P2;Temp;Humidity;BMP_temperature;BMP_pressure;BME280_temperature;BME280_humidity;BME280_pressure;Samples;Min_cycle;Max_cycle;Signal;HPM_P1;HPM_P2
2023/10/07 00:00:51;;;;;;;18.33;4.20;;;17.00;99.90;;;;;;5042153;28;20053;-77
2023/10/07 00:03:20;;;;;;;23.95;4.68;;;17.00;99.90;;;;;;5040498;28;20393;-78
2023/10/07 00:06:00;;;;;;;15.32;4.22;;;17.00;99.90;;;;;;5040757;28;20059;-77
2023/10/07 00:08:28;;;;;;;19.73;5.00;;;17.00;99.90;;;;;;5041367;28;20047;-77
2023/10/07 00:11:00;;;;;;;21.13;4.63;;;17.00;99.90;;;;;;5044937;28;20508;-78
2023/10/07 00:13:30;;;;;;;17.08;3.95;;;17.00;99.90;;;;;;5024997;28;20055;-77
2023/10/07 00:15:56;;;;;;;16.42;4.90;;;17.00;99.90;;;;;;5039380;28;20061;-78
2023/10/07 00:18:23;;;;;;;19.27;4.50;;;17.00;99.90;;;;;;5039119;28;20041;-77
2023/10/07 00:20:56;;;;;;;18.63;4.85;;;17.10;99.90;;;;;;5044021;28;20087;-80
2023/10/07 00:23:28;;;;;;;18.92;4.57;;;17.00;99.90;;;;;;5042949;28;20048;-77
2023/10/07 00:25:59;;;;;;;10.48;3.88;;;17.00;99.90;;;;;;5029509;28;20049;-77
2023/10/07 00:28:32;;;;;;;13.70;3.08;;;17.10;99.90;;;;;;5044062;28;20524;-77
2023/10/07 00:31:02;;;;;;;13.13;4.68;;;17.00;99.90;;;;;;5046212;28;20167;-79
2023/10/07 00:33:45;;;;;;;17.38;4.10;;;17.00;99.90;;;;;;5047401;28;20048;-77
2023/10/07 00:36:10;;;;;;;19.30;5.10;;;17.10;99.90;;;;;;5047048;28;20043;-78
2023/10/07 00:38:41;;;;;;;18.88;4.40;;;17.10;99.90;;;;;;5051448;28;20124;-77
2023/10/07 00:41:11;;;;;;;16.70;3.70;;;17.00;99.90;;;;;;5049688;28;20476;-78
2023/10/07 00:43:37;;;;;;;22.65;5.25;;;17.00;99.90;;;;;;5077814;28;20051;-77
2023/10/07 00:46:10;;;;;;;12.57;3.45;;;17.10;99.90;;;;;;5055229;28;20054;-77
2023/10/07 00:48:52;;;;;;;15.52;4.00;;;17.00;99.90;;;;;;5049587;28;20045;-79
2023/10/07 00:51:33;;;;;;;16.30;3.78;;;17.00;99.90;;;;;;5019771;28;20155;-78
2023/10/07 00:54:18;;;;;;;15.50;4.55;;;17.10;99.90;;;;;;5051039;28;20384;-77
2023/10/07 00:57:03;;;;;;;15.93;4.45;;;17.00;99.90;;;;;;5034049;28;20036;-78
2023/10/07 00:59:30;;;;;;;17.45;4.32;;;17.00;99.90;;;;;;5049666;28;20100;-78
2023/10/07 01:01:57;;;;;;;18.80;5.20;;;17.00;99.90;;;;;;5028526;28;20190;-79
2023/10/07 01:04:24;;;;;;;21.55;4.85;;;17.00;99.90;;;;;;5032311;28;20051;-79
2023/10/07 01:07:00;;;;;;;20.17;5.05;;;17.00;99.90;;;;;;5048078;28;20452;-77
2023/10/07 01:09:28;;;;;;;17.05;4.80;;;17.00;99.90;;;;;;5049819;28;20045;-77
2023/10/07 01:12:00;;;;;;;19.02;4.78;;;17.00;99.90;;;;;;5044594;28;20045;-77
2023/10/07 01:14:33;;;;;;;15.88;4.82;;;16.90;99.90;;;;;;5044348;28;20090;-76
2023/10/07 01:17:03;;;;;;;19.08;5.07;;;16.90;99.90;;;;;;5049289;28;20041;-76
2023/10/07 01:19:36;;;;;;;18.58;5.10;;;16.90;99.90;;;;;;5032318;28;20098;-77
2023/10/07 01:22:12;;;;;;;18.13;5.13;;;16.90;99.90;;;;;;5050066;28;20057;-76
2023/10/07 01:24:44;;;;;;;21.50;5.78;;;16.80;99.90;;;;;;5034957;28;20048;-76
2023/10/07 01:29:42;;;;;;;16.13;4.80;;;16.80;99.90;;;;;;5033403;28;20088;-79
2023/10/07 01:32:15;;;;;;;14.32;5.03;;;16.70;99.90;;;;;;5040174;28;20041;-76
2023/10/07 01:34:47;;;;;;;14.40;4.95;;;16.80;99.90;;;;;;5051612;28;20091;-75
2023/10/07 01:37:15;;;;;;;19.60;4.50;;;16.70;99.90;;;;;;5047390;28;20055;-77
2023/10/07 01:39:43;;;;;;;14.82;5.45;;;16.70;99.90;;;;;;5045385;28;20124;-76
2023/10/07 01:42:14;;;;;;;19.98;5.60;;;16.80;99.90;;;;;;5028350;28;20053;-76
2023/10/07 01:44:41;;;;;;;15.77;5.22;;;16.70;99.90;;;;;;5037474;28;20045;-75
2023/10/07 01:47:16;;;;;;;17.15;4.97;;;16.70;99.90;;;;;;5038702;28;20037;-76
2023/10/07 01:49:43;;;;;;;20.10;5.05;;;16.70;99.90;;;;;;5024347;28;20479;-77
2023/10/07 01:52:09;;;;;;;18.63;5.47;;;16.70;99.90;;;;;;5051132;28;20044;-76
2023/10/07 01:54:35;;;;;;;17.45;4.63;;;16.70;99.90;;;;;;5041426;28;20500;-75
2023/10/07 01:57:04;;;;;;;17.05;5.07;;;16.70;99.90;;;;;;5051624;28;20060;-75
2023/10/07 01:59:30;;;;;;;17.40;4.93;;;16.70;99.90;;;;;;5026967;28;20044;-75
2023/10/07 02:02:06;;;;;;;16.13;5.25;;;16.70;99.90;;;;;;5046699;28;20040;-75
2023/10/07 02:04:33;;;;;;;16.88;4.72;;;16.70;99.90;;;;;;5047651;28;20040;-75
2023/10/07 02:06:59;;;;;;;14.98;4.75;;;16.70;99.90;;;;;;5042121;28;20063;-76
2023/10/07 02:09:29;;;;;;;14.00;4.65;;;16.70;99.90;;;;;;5046801;28;20136;-77
2023/10/07 02:12:07;;;;;;;15.93;4.78;;;16.70;99.90;;;;;;5048179;28;20056;-76
2023/10/07 02:14:34;;;;;;;20.85;5.00;;;16.70;99.90;;;;;;5047052;28;20137;-75
2023/10/07 02:17:00;;;;;;;19.30;5.20;;;16.70;99.90;;;;;;5052640;28;20053;-76
2023/10/07 02:19:31;;;;;;;14.30;4.70;;;16.80;99.90;;;;;;5043882;28;20060;-75
2023/10/07 02:21:59;;;;;;;13.45;4.13;;;16.70;99.90;;;;;;5039012;28;20061;-76
2023/10/07 02:24:29;;;;;;;17.17;4.78;;;16.70;99.90;;;;;;5015272;28;20053;-75
2023/10/07 02:27:04;;;;;;;16.98;5.00;;;16.70;99.90;;;;;;5025051;28;20080;-76
2023/10/07 02:29:30;;;;;;;15.52;4.18;;;16.70;99.90;;;;;;5052549;28;20492;-75
2023/10/07 02:32:14;;;;;;;14.60;4.85;;;16.70;99.90;;;;;;5052417;28;20045;-75
2023/10/07 02:34:53;;;;;;;9.15;3.45;;;16.70;99.90;;;;;;5033998;28;20045;-76
2023/10/07 02:37:25;;;;;;;20.75;5.40;;;16.70;99.90;;;;;;5046383;28;20097;-76
2023/10/07 02:40:03;;;;;;;16.63;4.72;;;16.80;99.90;;;;;;5036282;28;20048;-75
2023/10/07 02:42:31;;;;;;;15.15;4.70;;;16.80;99.90;;;;;;5052498;28;20036;-75
2023/10/07 02:45:19;;;;;;;15.88;3.70;;;16.80;99.90;;;;;;5017591;28;20054;-76
2023/10/07 02:48:00;;;;;;;17.77;4.18;;;16.80;99.90;;;;;;5048072;28;20106;-75
2023/10/07 02:50:26;;;;;;;14.38;4.00;;;16.80;99.90;;;;;;5051421;28;20044;-75
2023/10/07 02:52:54;;;;;;;15.30;4.43;;;16.80;99.90;;;;;;5035462;28;20318;-76
2023/10/07 02:57:55;;;;;;;12.57;3.58;;;16.90;99.90;;;;;;5051407;28;20048;-77
2023/10/07 03:00:37;;;;;;;13.35;3.85;;;16.90;99.90;;;;;;5035392;28;20477;-76
2023/10/07 03:03:19;;;;;;;15.57;4.10;;;16.90;99.90;;;;;;5032207;28;20048;-76
2023/10/07 03:05:45;;;;;;;15.13;3.75;;;16.90;99.90;;;;;;5032207;28;20049;-76
2023/10/07 03:08:20;;;;;;;12.35;3.40;;;16.90;99.90;;;;;;5038777;28;20071;-75
2023/10/07 03:11:09;;;;;;;12.90;4.03;;;17.00;99.90;;;;;;5050034;28;20413;-75
2023/10/07 03:13:39;;;;;;;24.60;4.75;;;17.00;99.90;;;;;;5042669;28;20052;-75
2023/10/07 03:18:48;;;;;;;18.48;4.45;;;17.00;99.90;;;;;;5038590;28;20049;-75
2023/10/07 03:21:15;;;;;;;13.43;3.75;;;17.00;99.90;;;;;;5048594;28;20056;-77
2023/10/07 03:23:58;;;;;;;12.13;4.07;;;17.00;99.90;;;;;;5036111;28;20060;-75
2023/10/07 03:26:24;;;;;;;16.08;3.95;;;17.00;99.90;;;;;;5051648;28;20482;-77
2023/10/07 03:28:54;;;;;;;16.58;3.65;;;17.00;99.90;;;;;;5039272;28;20120;-75
2023/10/07 03:31:21;;;;;;;15.32;4.00;;;17.00;99.90;;;;;;5027129;28;20045;-75
2023/10/07 03:33:58;;;;;;;13.43;3.50;;;17.00;99.90;;;;;;5045314;28;20045;-76
2023/10/07 03:36:31;;;;;;;14.50;4.70;;;17.00;99.90;;;;;;5048550;28;20098;-75
2023/10/07 03:41:47;;;;;;;15.57;3.92;;;17.00;99.90;;;;;;5036131;28;20049;-76
2023/10/07 03:44:25;;;;;;;12.95;3.38;;;17.00;99.90;;;;;;5023701;28;20053;-76
2023/10/07 03:46:55;;;;;;;19.63;3.97;;;17.00;99.90;;;;;;5035789;28;20041;-76
2023/10/07 03:49:22;;;;;;;15.10;3.90;;;17.00;99.90;;;;;;5031402;28;20052;-75
2023/10/07 03:51:59;;;;;;;17.15;4.20;;;17.00;99.90;;;;;;5028332;28;20139;-76
2023/10/07 03:54:29;;;;;;;12.45;4.00;;;17.00;99.90;;;;;;5032637;28;20110;-76
2023/10/07 03:57:00;;;;;;;15.98;4.00;;;17.00;99.90;;;;;;5048844;28;20491;-76
2023/10/07 03:59:39;;;;;;;14.50;3.40;;;17.00;99.90;;;;;;5029696;28;20053;-75
2023/10/07 04:04:58;;;;;;;15.02;3.75;;;17.00;99.90;;;;;;5034754;28;20037;-80
2023/10/07 04:07:27;;;;;;;12.48;4.18;;;17.00;99.90;;;;;;5030963;28;20459;-78
2023/10/07 04:09:53;;;;;;;17.30;4.00;;;17.00;99.90;;;;;;5035123;28;20085;-78
2023/10/07 04:12:22;;;;;;;10.20;3.20;;;17.00;99.90;;;;;;5046513;28;20045;-78
2023/10/07 04:14:47;;;;;;;16.15;3.78;;;17.00;99.90;;;;;;5051052;28;20045;-79
2023/10/07 04:17:13;;;;;;;12.98;3.53;;;17.00;99.90;;;;;;5042849;28;20052;-79
2023/10/07 04:19:48;;;;;;;17.35;4.30;;;17.00;99.90;;;;;;5033459;28;20473;-77
2023/10/07 04:22:13;;;;;;;;;;;17.00;99.90;;;;;;5057905;28;20053;-79
2023/10/07 04:24:44;;;;;;;13.75;3.20;;;17.00;99.90;;;;;;5056732;28;19947;-77
2023/10/07 04:27:18;;;;;;;10.18;3.70;;;17.00;99.90;;;;;;5057272;28;20056;-79
2023/10/07 04:29:44;;;;;;;;;;;17.00;99.90;;;;;;5043540;28;20046;-79
2023/10/07 04:32:20;;;;;;;11.27;3.42;;;17.00;99.90;;;;;;5052285;28;20512;-79
2023/10/07 04:35:30;;;;;;;17.50;4.20;;;17.00;99.90;;;;;;5043531;28;20049;-79
2023/10/07 04:37:59;;;;;;;13.70;4.07;;;17.00;99.90;;;;;;5042570;28;20053;-78
2023/10/07 04:45:48;;;;;;;15.30;4.32;;;17.00;99.90;;;;;;5054590;28;20049;-76
2023/10/07 04:51:04;;;;;;;11.63;3.38;;;17.00;99.90;;;;;;5052137;28;20521;-80
2023/10/07 04:53:43;;;;;;;12.07;3.35;;;17.00;99.90;;;;;;5051596;28;20122;-79
2023/10/07 04:56:10;;;;;;;16.95;4.70;;;17.00;99.90;;;;;;5048396;28;20056;-77
2023/10/07 04:58:40;;;;;;;13.88;3.35;;;17.00;99.90;;;;;;5035215;28;20398;-77
2023/10/07 05:03:55;;;;;;;10.95;3.53;;;17.00;99.90;;;;;;5053792;28;20057;-79
2023/10/07 05:06:22;;;;;;;10.48;3.38;;;17.00;99.90;;;;;;5054185;28;20048;-77
2023/10/07 05:08:48;;;;;;;8.80;3.47;;;17.00;99.90;;;;;;5054379;28;20044;-78
2023/10/07 05:11:17;;;;;;;12.80;3.75;;;17.00;99.90;;;;;;5053440;28;20124;-78
2023/10/07 05:13:46;;;;;;;10.45;3.78;;;17.00;99.90;;;;;;5055476;28;20056;-76
2023/10/07 05:16:13;;;;;;;12.32;3.97;;;17.10;99.90;;;;;;5054207;28;20083;-77
2023/10/07 05:18:39;;;;;;;14.60;4.10;;;17.00;99.90;;;;;;5035517;28;20107;-76
2023/10/07 05:21:06;;;;;;;11.70;3.67;;;17.00;99.90;;;;;;5048756;28;20068;-78
2023/10/07 05:23:33;;;;;;;14.45;3.67;;;17.00;99.90;;;;;;5044617;28;20045;-77
2023/10/07 05:26:03;;;;;;;11.05;3.58;;;17.00;99.90;;;;;;5048757;28;20059;-77
2023/10/07 05:28:32;;;;;;;13.20;3.97;;;17.00;99.90;;;;;;5050085;28;20431;-77
2023/10/07 05:31:00;;;;;;;11.52;3.50;;;17.10;99.90;;;;;;5047673;28;20088;-77
2023/10/07 05:33:28;;;;;;;16.00;3.88;;;17.10;99.90;;;;;;5053716;28;20044;-76
2023/10/07 05:36:14;;;;;;;18.48;4.45;;;17.10;99.90;;;;;;5051864;28;20047;-77
2023/10/07 05:38:42;;;;;;;12.25;3.33;;;17.10;99.90;;;;;;5052114;28;20041;-75
2023/10/07 05:41:12;;;;;;;12.52;3.83;;;17.00;99.90;;;;;;5032826;28;20370;-76
2023/10/07 05:43:51;;;;;;;13.38;3.33;;;17.00;99.90;;;;;;5046087;28;20041;-76
2023/10/07 05:46:19;;;;;;;12.82;4.00;;;17.00;99.90;;;;;;5052739;28;20048;-76
2023/10/07 05:48:45;;;;;;;11.93;3.15;;;17.00;99.90;;;;;;5044978;28;20127;-77
2023/10/07 05:51:11;;;;;;;11.15;3.33;;;17.00;99.90;;;;;;5051682;28;20048;-76
2023/10/07 05:53:38;;;;;;;13.07;4.28;;;17.10;99.90;;;;;;5036396;28;20397;-77
2023/10/07 05:56:07;;;;;;;12.15;3.20;;;17.00;99.90;;;;;;5051390;28;20076;-77
2023/10/07 05:58:38;;;;;;;12.23;3.50;;;17.00;99.90;;;;;;5047789;28;20420;-80
2023/10/07 06:01:05;;;;;;;11.23;3.25;;;17.00;99.90;;;;;;5067836;28;20052;-77
2023/10/07 06:03:32;;;;;;;14.82;4.05;;;17.00;99.90;;;;;;5040627;28;20468;-77
2023/10/07 06:05:58;;;;;;;14.65;3.80;;;17.00;99.90;;;;;;5036844;28;20441;-77
2023/10/07 06:08:28;;;;;;;15.15;3.92;;;17.00;99.90;;;;;;5050549;28;20084;-77
2023/10/07 06:10:59;;;;;;;15.98;3.53;;;17.00;99.90;;;;;;5069198;28;20133;-76
2023/10/07 06:13:27;;;;;;;17.98;4.15;;;17.00;99.90;;;;;;5051836;28;20056;-76
2023/10/07 06:15:57;;;;;;;15.13;3.28;;;17.00;99.90;;;;;;5049546;28;20056;-76
2023/10/07 06:18:24;;;;;;;13.43;3.40;;;17.00;99.90;;;;;;5052322;28;20128;-76
2023/10/07 06:20:51;;;;;;;10.65;3.53;;;17.00;99.90;;;;;;5042985;28;20053;-76
2023/10/07 06:23:18;;;;;;;11.50;4.03;;;16.90;99.90;;;;;;5033144;28;20136;-76
2023/10/07 06:25:48;;;;;;;17.13;3.80;;;16.90;99.90;;;;;;5034813;28;20501;-76
2023/10/07 06:31:22;;;;;;;13.57;3.83;;;16.90;99.90;;;;;;5032779;28;20057;-77
2023/10/07 06:34:11;;;;;;;14.07;3.53;;;16.90;99.90;;;;;;5051019;28;20068;-78
2023/10/07 06:36:39;;;;;;;12.43;3.78;;;16.90;99.90;;;;;;5052065;28;20056;-77
2023/10/07 06:39:10;;;;;;;17.73;3.92;;;16.90;99.90;;;;;;5051688;28;20049;-77
2023/10/07 06:41:38;;;;;;;14.20;4.20;;;16.90;99.90;;;;;;5050374;28;20049;-78
2023/10/07 06:44:06;;;;;;;12.07;3.22;;;16.90;99.90;;;;;;5051739;28;20045;-77
2023/10/07 06:46:43;;;;;;;14.15;3.70;;;16.90;99.90;;;;;;5048552;28;20041;-77
2023/10/07 06:49:16;;;;;;;12.82;3.33;;;16.90;99.90;;;;;;5046885;28;20057;-77
2023/10/07 06:52:03;;;;;;;16.63;3.90;;;16.90;99.90;;;;;;5032739;28;20045;-78
2023/10/07 06:54:34;;;;;;;15.30;4.28;;;16.90;99.90;;;;;;5052086;28;20049;-77
2023/10/07 06:57:04;;;;;;;14.57;3.90;;;16.90;99.90;;;;;;5052363;28;20049;-77
2023/10/07 06:59:30;;;;;;;15.00;4.80;;;16.90;99.90;;;;;;5044487;28;20048;-80
2023/10/07 07:01:57;;;;;;;14.82;3.55;;;16.90;99.90;;;;;;5017152;28;20045;-79
2023/10/07 07:04:23;;;;;;;17.63;4.47;;;16.90;99.90;;;;;;5041097;28;20072;-77
2023/10/07 07:07:10;;;;;;;14.55;4.45;;;17.00;99.90;;;;;;5053546;28;20060;-76
2023/10/07 07:10:16;;;;;;;11.48;3.42;;;16.90;99.90;;;;;;5051936;28;20063;-78
2023/10/07 07:12:28;;;;;;;18.30;4.70;;;16.90;99.90;;;;;;5034078;28;20108;-76
2023/10/07 07:15:08;;;;;;;19.75;5.25;;;17.00;99.90;;;;;;5047362;28;20053;-77
2023/10/07 07:22:54;;;;;;;19.92;4.75;;;17.10;99.90;;;;;;5051686;28;20051;-76
2023/10/07 07:27:48;;;;;;;14.68;4.18;;;17.20;99.90;;;;;;5032318;28;20041;-76
2023/10/07 07:30:35;;;;;;;21.60;5.13;;;17.20;99.90;;;;;;5033400;28;20485;-77
2023/10/07 07:33:15;;;;;;;15.98;4.72;;;17.20;99.90;;;;;;5049064;28;20132;-76
2023/10/07 07:35:45;;;;;;;11.63;4.70;;;17.20;99.90;;;;;;5046887;28;20044;-76
2023/10/07 07:40:49;;;;;;;16.90;5.13;;;17.20;99.90;;;;;;5049592;28;20044;-75
2023/10/07 07:43:17;;;;;;;14.80;4.43;;;17.30;99.90;;;;;;5045206;28;20087;-75
2023/10/07 07:45:46;;;;;;;16.83;4.18;;;17.30;99.90;;;;;;5054077;28;20044;-75
2023/10/07 07:48:12;;;;;;;14.52;3.60;;;17.30;99.90;;;;;;5055019;28;20115;-76
2023/10/07 07:50:40;;;;;;;16.52;3.65;;;17.30;99.90;;;;;;5056422;28;20124;-76
2023/10/07 07:53:06;;;;;;;10.25;3.33;;;17.30;99.90;;;;;;5056297;28;20159;-76
2023/10/07 07:55:37;;;;;;;12.70;4.22;;;17.40;99.90;;;;;;5044680;28;20049;-77
2023/10/07 07:58:04;;;;;;;12.50;3.63;;;17.40;99.90;;;;;;5051286;28;20097;-77
2023/10/07 08:00:31;;;;;;;16.40;4.10;;;17.40;99.90;;;;;;5053292;28;20524;-77
2023/10/07 08:02:58;;;;;;;12.80;3.97;;;17.50;99.90;;;;;;5055770;28;20052;-76
2023/10/07 08:05:28;;;;;;;15.05;3.60;;;17.50;99.90;;;;;;5046397;28;20135;-77
2023/10/07 08:07:55;;;;;;;10.65;3.55;;;17.60;99.90;;;;;;5054175;28;20049;-77
2023/10/07 08:10:22;;;;;;;10.85;3.53;;;17.60;99.90;;;;;;5054212;28;20064;-76
2023/10/07 08:12:50;;;;;;;18.27;3.90;;;17.70;99.90;;;;;;5053981;28;20120;-77
2023/10/07 08:15:23;;;;;;;10.82;3.05;;;17.70;99.90;;;;;;5050265;28;20045;-76
2023/10/07 08:17:52;;;;;;;14.40;4.13;;;17.70;99.90;;;;;;5049430;28;20045;-77
2023/10/07 08:20:33;;;;;;;14.25;3.80;;;17.80;99.90;;;;;;5046449;28;20111;-79
2023/10/07 08:23:06;;;;;;;15.88;4.38;;;17.80;99.90;;;;;;5055385;28;20056;-77
2023/10/07 08:25:45;;;;;;;15.10;4.13;;;17.80;99.90;;;;;;5053236;28;20107;-77
2023/10/07 08:31:06;;;;;;;12.85;4.20;;;17.90;99.90;;;;;;5047652;28;20127;-81
2023/10/07 08:33:33;;;;;;;13.25;3.50;;;17.90;99.90;;;;;;5054638;28;20191;-76
2023/10/07 08:35:58;;;;;;;11.23;3.58;;;17.90;99.90;;;;;;5053449;28;20080;-84
2023/10/07 08:38:37;;;;;;;14.15;3.72;;;17.90;99.90;;;;;;5054631;28;20114;-76
2023/10/07 08:41:04;;;;;;;13.80;4.03;;;17.90;99.90;;;;;;5035415;28;20103;-80
2023/10/07 08:43:43;;;;;;;9.90;3.30;;;18.00;99.90;;;;;;5045886;28;20040;-78
2023/10/07 08:46:12;;;;;;;13.43;3.47;;;18.00;99.90;;;;;;5050039;28;20049;-80
2023/10/07 08:48:44;;;;;;;22.67;4.75;;;18.00;99.90;;;;;;5042066;28;20037;-78
2023/10/07 08:51:14;;;;;;;10.52;3.50;;;18.00;99.90;;;;;;5048337;28;20049;-78
2023/10/07 08:53:43;;;;;;;17.73;4.07;;;18.00;99.90;;;;;;5047325;28;20044;-79
2023/10/07 08:56:09;;;;;;;11.40;3.60;;;18.00;99.90;;;;;;5037997;28;20438;-79
2023/10/07 08:58:39;;;;;;;13.43;3.97;;;18.00;99.90;;;;;;5052454;28;20053;-79
2023/10/07 09:01:07;;;;;;;14.02;4.40;;;18.00;99.90;;;;;;5048710;28;20053;-78
2023/10/07 09:03:39;;;;;;;13.20;3.85;;;18.10;99.90;;;;;;5051401;28;20369;-77
2023/10/07 09:06:09;;;;;;;18.23;4.18;;;18.10;99.90;;;;;;5054303;28;20041;-78
2023/10/07 09:08:35;;;;;;;12.68;3.70;;;18.10;99.90;;;;;;5050665;28;20044;-78
2023/10/07 09:11:06;;;;;;;15.15;4.40;;;18.10;99.90;;;;;;5052975;28;20047;-78
2023/10/07 09:13:38;;;;;;;17.45;3.65;;;18.10;99.90;;;;;;5048540;28;20048;-77
2023/10/07 09:16:07;;;;;;;17.92;4.53;;;18.10;99.90;;;;;;5040618;28;20045;-78
2023/10/07 09:18:41;;;;;;;12.32;3.60;;;18.10;99.90;;;;;;5053463;28;20098;-77
2023/10/07 09:21:19;;;;;;;17.88;4.32;;;18.10;99.90;;;;;;5042815;28;20408;-78
2023/10/07 09:23:51;;;;;;;12.70;3.83;;;18.20;99.90;;;;;;5042938;28;20095;-79
2023/10/07 09:26:37;;;;;;;17.65;4.43;;;18.20;99.90;;;;;;5045770;28;20075;-78
2023/10/07 09:29:21;;;;;;;18.17;4.20;;;18.20;99.90;;;;;;5045017;28;20061;-77
2023/10/07 09:32:32;;;;;;;12.57;3.93;;;18.20;99.90;;;;;;5054414;28;20126;-79
2023/10/07 09:34:44;;;;;;;17.08;3.88;;;18.30;99.90;;;;;;5046723;28;20155;-76
2023/10/07 09:37:17;;;;;;;14.98;4.45;;;18.30;99.90;;;;;;5049297;28;20052;-77
2023/10/07 09:39:53;;;;;;;15.90;3.80;;;18.30;99.90;;;;;;5045732;28;20041;-77
2023/10/07 09:42:45;;;;;;;17.35;4.35;;;18.30;99.90;;;;;;5037869;28;20060;-77
2023/10/07 09:45:17;;;;;;;14.10;4.57;;;18.30;99.90;;;;;;5047125;28;20041;-77
2023/10/07 09:47:46;;;;;;;14.00;4.82;;;18.20;99.90;;;;;;5045673;28;20041;-77
2023/10/07 09:50:27;;;;;;;15.60;4.50;;;18.20;99.90;;;;;;5053052;28;20045;-76
2023/10/07 09:53:36;;;;;;;14.75;3.65;;;18.20;99.90;;;;;;5052486;28;20177;-77
2023/10/07 09:56:39;;;;;;;15.07;3.90;;;18.20;99.90;;;;;;5048501;28;20048;-77
2023/10/07 09:59:15;;;;;;;15.40;4.25;;;18.20;99.90;;;;;;5060685;28;20053;-77
2023/10/07 10:01:41;;;;;;;15.75;3.60;;;18.20;99.90;;;;;;5048515;28;20420;-78
2023/10/07 10:04:32;;;;;;;10.70;4.00;;;18.20;99.90;;;;;;5035859;28;20037;-77
2023/10/07 10:07:28;;;;;;;17.88;4.40;;;18.20;99.90;;;;;;5041518;28;20500;-77
2023/10/07 10:10:14;;;;;;;16.27;4.78;;;18.20;99.90;;;;;;5033228;28;20053;-77
2023/10/07 10:13:06;;;;;;;13.50;4.15;;;18.20;99.90;;;;;;5024464;28;20052;-81
2023/10/07 10:21:04;;;;;;;17.00;4.07;;;18.40;99.90;;;;;;5042124;28;20053;-81
2023/10/07 10:23:34;;;;;;;15.90;4.30;;;18.50;99.90;;;;;;5042870;28;20053;-81
2023/10/07 10:26:20;;;;;;;13.02;3.65;;;18.60;99.90;;;;;;5053056;28;20041;-84
2023/10/07 10:29:00;;;;;;;14.48;4.18;;;18.60;99.90;;;;;;5018163;28;20049;-80
2023/10/07 10:31:40;;;;;;;16.65;4.40;;;18.70;99.90;;;;;;5052945;28;20048;-80
2023/10/07 10:34:08;;;;;;;11.77;4.35;;;18.70;99.90;;;;;;5033066;28;20493;-81
2023/10/07 10:36:43;;;;;;;13.88;3.83;;;18.70;99.90;;;;;;5031693;28;20037;-81
2023/10/07 10:39:25;;;;;;;12.77;4.15;;;18.70;99.90;;;;;;5018479;28;20061;-81
2023/10/07 10:41:55;;;;;;;11.55;4.05;;;18.70;99.90;;;;;;5038250;28;20099;-82
2023/10/07 10:44:23;;;;;;;13.27;3.80;;;18.70;99.90;;;;;;5030485;28;20504;-83
2023/10/07 10:46:50;;;;;;;13.70;3.40;;;18.70;99.90;;;;;;5051955;28;20116;-82
2023/10/07 10:49:21;;;;;;;13.48;4.25;;;18.70;99.90;;;;;;5050997;28;20403;-82
2023/10/07 10:51:50;;;;;;;14.50;4.05;;;18.70;99.90;;;;;;5052071;28;20051;-82
2023/10/07 10:54:18;;;;;;;10.35;3.45;;;18.80;99.90;;;;;;5048114;28;20059;-82
2023/10/07 10:56:58;;;;;;;15.70;4.35;;;18.80;99.90;;;;;;5048988;28;20548;-84
2023/10/07 10:59:47;;;;;;;13.40;3.92;;;18.90;99.90;;;;;;5039630;28;20048;-81
2023/10/07 11:02:22;;;;;;;13.30;4.28;;;18.90;99.90;;;;;;5042334;28;20539;-80
2023/10/07 11:04:56;;;;;;;10.30;3.40;;;18.90;99.90;;;;;;5040273;28;20057;-80
2023/10/07 11:07:23;;;;;;;15.20;4.13;;;18.90;99.90;;;;;;5039996;28;20131;-81
2023/10/07 11:09:51;;;;;;;13.73;3.90;;;18.90;99.90;;;;;;5040186;28;20068;-83
2023/10/07 11:12:18;;;;;;;17.42;4.40;;;18.90;99.90;;;;;;5052526;28;20076;-79
2023/10/07 11:14:47;;;;;;;18.52;3.80;;;18.90;99.90;;;;;;5035629;28;20060;-80
2023/10/07 11:17:15;;;;;;;18.30;4.22;;;18.90;99.90;;;;;;5032994;28;20515;-82
2023/10/07 11:20:02;;;;;;;14.20;4.78;;;19.00;99.90;;;;;;5050173;28;20048;-81
2023/10/07 11:22:30;;;;;;;14.70;3.80;;;19.00;99.90;;;;;;5037899;28;20061;-81
2023/10/07 11:24:55;;;;;;;9.95;3.38;;;19.00;99.90;;;;;;5045704;28;20060;-90
2023/10/07 11:27:26;;;;;;;10.93;3.50;;;18.90;99.90;;;;;;5034058;28;20132;-84
2023/10/07 11:30:06;;;;;;;12.95;4.32;;;18.90;99.90;;;;;;5053915;28;20049;-91
2023/10/07 11:32:38;;;;;;;16.83;4.57;;;18.80;99.90;;;;;;5053984;28;20079;-86
2023/10/07 11:35:19;;;;;;;15.68;4.90;;;18.80;99.90;;;;;;5050554;28;20369;-83
2023/10/07 11:37:58;;;;;;;15.80;4.05;;;18.80;99.90;;;;;;5052604;28;20139;-87
2023/10/07 11:40:27;;;;;;;14.05;4.18;;;18.80;99.90;;;;;;5051830;28;20059;-82
2023/10/07 11:42:53;;;;;;;17.25;4.13;;;18.80;99.90;;;;;;5052386;28;20107;-81
2023/10/07 11:45:22;;;;;;;11.52;4.13;;;18.80;99.90;;;;;;5050956;28;20076;-79
2023/10/07 11:47:48;;;;;;;11.13;3.78;;;18.80;99.90;;;;;;5051169;28;20042;-81
2023/10/07 11:50:16;;;;;;;14.20;4.22;;;18.80;99.90;;;;;;5051767;28;20497;-81
2023/10/07 11:52:42;;;;;;;16.08;4.03;;;18.80;99.90;;;;;;5052045;28;20051;-85
2023/10/07 11:55:09;;;;;;;13.07;3.88;;;18.70;99.90;;;;;;5052013;28;20144;-81
2023/10/07 11:57:37;;;;;;;15.43;4.28;;;18.80;99.90;;;;;;5051838;28;20493;-81
2023/10/07 12:00:23;;;;;;;14.05;4.07;;;18.80;99.90;;;;;;5051819;28;20099;-81
2023/10/07 12:02:52;;;;;;;22.83;4.78;;;18.80;99.90;;;;;;5052209;28;20044;-81
2023/10/07 12:05:18;;;;;;;13.02;4.38;;;18.80;99.90;;;;;;5051697;28;20427;-81
2023/10/07 12:07:47;;;;;;;14.95;4.63;;;18.90;99.90;;;;;;5051758;28;20128;-82
2023/10/07 12:10:16;;;;;;;11.98;3.97;;;19.00;99.90;;;;;;5051874;28;20048;-82
2023/10/07 12:12:45;;;;;;;13.52;4.20;;;19.00;99.90;;;;;;5034873;28;20052;-81
2023/10/07 12:15:15;;;;;;;16.25;4.28;;;19.00;99.90;;;;;;5051834;28;20041;-81
2023/10/07 12:17:42;;;;;;;14.52;3.65;;;19.00;99.90;;;;;;5051567;28;20048;-82
2023/10/07 12:20:12;;;;;;;13.25;4.03;;;19.10;99.90;;;;;;5051528;28;20041;-81
2023/10/07 12:22:42;;;;;;;13.55;4.40;;;19.20;99.90;;;;;;5053398;28;20184;-84
2023/10/07 12:25:16;;;;;;;15.63;4.35;;;19.20;99.90;;;;;;5051146;28;20041;-80
2023/10/07 12:27:51;;;;;;;20.37;4.13;;;19.20;99.90;;;;;;5047383;28;20045;-83
2023/10/07 12:30:21;;;;;;;14.30;4.22;;;19.20;99.90;;;;;;5053430;28;20044;-84
2023/10/07 12:32:48;;;;;;;13.52;4.18;;;19.10;99.90;;;;;;5042107;28;20049;-80
2023/10/07 12:35:18;;;;;;;15.32;4.45;;;19.00;99.90;;;;;;5052011;28;20477;-81
2023/10/07 12:37:46;;;;;;;9.70;4.13;;;19.00;99.90;;;;;;5052979;28;20045;-83
2023/10/07 12:40:20;;;;;;;12.10;3.47;;;19.00;99.90;;;;;;5053851;28;20136;-81
2023/10/07 12:42:52;;;;;;;17.03;3.80;;;19.00;99.90;;;;;;5048500;28;20044;-82
2023/10/07 12:45:18;;;;;;;8.57;3.63;;;19.00;99.90;;;;;;5035529;28;20049;-82
2023/10/07 12:47:45;;;;;;;13.43;4.20;;;19.00;99.90;;;;;;5036362;28;20072;-83
2023/10/07 12:50:29;;;;;;;13.30;4.15;;;19.00;99.90;;;;;;5052643;28;20036;-83
2023/10/07 12:53:04;;;;;;;11.90;4.00;;;19.10;99.90;;;;;;5052827;28;20045;-83
2023/10/07 12:55:31;;;;;;;13.50;3.92;;;19.10;99.90;;;;;;5054419;28;20129;-82
2023/10/07 12:58:01;;;;;;;14.50;4.30;;;19.10;99.90;;;;;;5052622;28;20080;-83
2023/10/07 13:00:32;;;;;;;12.88;4.63;;;19.10;99.90;;;;;;5036376;28;20392;-83
2023/10/07 13:02:58;;;;;;;15.13;4.13;;;19.20;99.90;;;;;;5038874;28;20049;-83
2023/10/07 13:05:24;;;;;;;18.67;4.45;;;19.10;99.90;;;;;;5038083;28;20059;-82
2023/10/07 13:07:53;;;;;;;12.70;4.40;;;19.00;99.90;;;;;;5053535;28;20041;-82
2023/10/07 13:10:19;;;;;;;14.00;4.30;;;19.00;99.90;;;;;;5052384;28;20120;-83
2023/10/07 13:12:46;;;;;;;16.88;4.65;;;19.00;99.90;;;;;;5044022;28;20037;-83
2023/10/07 13:15:16;;;;;;;17.58;4.07;;;19.00;99.90;;;;;;5050223;28;20041;-83
2023/10/07 13:17:45;;;;;;;14.10;4.00;;;19.00;99.90;;;;;;5051981;28;20061;-82
2023/10/07 13:20:19;;;;;;;15.07;4.32;;;18.90;99.90;;;;;;5034373;28;20064;-84
2023/10/07 13:23:00;;;;;;;14.13;4.15;;;18.90;99.90;;;;;;5053764;28;20076;-87
2023/10/07 13:25:26;;;;;;;21.10;4.65;;;18.90;99.90;;;;;;5037282;28;20120;-83
2023/10/07 13:27:55;;;;;;;12.40;3.75;;;18.90;99.90;;;;;;5035721;28;20092;-83
2023/10/07 13:30:24;;;;;;;16.23;4.00;;;18.90;99.90;;;;;;5034419;28;20045;-80
2023/10/07 13:32:54;;;;;;;13.68;4.07;;;18.90;99.90;;;;;;5055002;28;20100;-82
2023/10/07 13:35:21;;;;;;;14.75;4.90;;;18.80;99.90;;;;;;5054517;28;20091;-82
2023/10/07 13:37:52;;;;;;;14.93;3.92;;;18.80;99.90;;;;;;5053248;28;20124;-82
2023/10/07 13:40:19;;;;;;;12.93;4.25;;;18.80;99.90;;;;;;5052687;28;20412;-82
2023/10/07 13:42:54;;;;;;;15.77;4.63;;;18.80;99.90;;;;;;5052232;28;20472;-82
2023/10/07 13:45:23;;;;;;;11.52;3.45;;;18.70;99.90;;;;;;5053347;28;20045;-79
2023/10/07 13:47:53;;;;;;;19.10;5.50;;;18.70;99.90;;;;;;5049039;28;20053;-79